Time;durP1;ratioP1;P1;durP2;ratioP2;P2;SDS_P1;SDS_P2;PMS_P1;PMS_P2;Temp;Humidity;BMP_temperature;BMP_pressure;BME280_temperature;BME280_humidity;BME280_pressure;Samples;Min_cycle;Max_cycle;Signal;HPM_P1;HPM_P2
2021/11/29 00:02:15;;;;;;;35.47;13.97;;;;;;;;;;5029851;28;20214;-82
2021/11/29 00:04:44;;;;;;;31.83;14.00;;;;;;;;;;5029596;28;20517;-82
2021/11/29 00:07:12;;;;;;;31.80;14.40;;;;;;;;;;5032424;28;20208;-83
2021/11/29 00:09:40;;;;;;;38.63;14.97;;;;;;;;;;5034691;28;20199;-83
2021/11/29 00:12:07;;;;;;;31.73;13.77;;;;;;;;;;5033693;28;20812;-83
2021/11/29 00:14:35;;;;;;;33.73;14.53;;;;;;;;;;5031128;28;20200;-82
2021/11/29 00:17:02;;;;;;;36.60;14.60;;;;;;;;;;5032218;28;20250;-83
2021/11/29 00:19:29;;;;;;;34.40;14.07;;;;;;;;;;5029280;28;20269;-82
2021/11/29 00:21:57;;;;;;;33.97;14.73;;;;;;;;;;5030019;28;20231;-83
2021/11/29 00:24:26;;;;;;;33.90;14.50;;;;;;;;;;5032136;28;20199;-83
2021/11/29 00:26:53;;;;;;;29.97;12.83;;;;;;;;;;5037047;28;20208;-82
2021/11/29 00:29:21;;;;;;;31.87;13.60;;;;;;;;;;5033777;28;20286;-83
2021/11/29 00:31:48;;;;;;;32.07;13.10;;;;;;;;;;5032660;28;20365;-83
2021/11/29 00:34:16;;;;;;;27.13;12.50;;;;;;;;;;5036406;28;20223;-83
2021/11/29 00:36:43;;;;;;;35.80;14.40;;;;;;;;;;5035139;28;20439;-83
2021/11/29 00:39:17;;;;;;;26.17;12.17;;;;;;;;;;5032967;28;20726;-84
2021/11/29 00:41:47;;;;;;;28.57;11.60;;;;;;;;;;5034305;28;20228;-83
2021/11/29 00:44:15;;;;;;;23.87;10.43;;;;;;;;;;5032075;28;20228;-82
2021/11/29 00:46:42;;;;;;;24.47;10.43;;;;;;;;;;5030602;28;20220;-82
2021/11/29 00:49:09;;;;;;;22.17;10.60;;;;;;;;;;5029065;28;20638;-82
2021/11/29 00:51:37;;;;;;;22.23;10.43;;;;;;;;;;5030159;28;20516;-83
2021/11/29 00:54:04;;;;;;;28.23;10.97;;;;;;;;;;5028766;28;20592;-82
2021/11/29 00:56:31;;;;;;;23.07;10.23;;;;;;;;;;5028723;28;20307;-82
2021/11/29 00:59:00;;;;;;;20.80;9.20;;;;;;;;;;5029082;28;20212;-83
2021/11/29 01:01:27;;;;;;;25.03;9.43;;;;;;;;;;5026979;28;20270;-81
2021/11/29 01:03:55;;;;;;;19.03;8.50;;;;;;;;;;5025828;28;20649;-83
2021/11/29 01:06:22;;;;;;;24.53;10.37;;;;;;;;;;5024754;28;20855;-81
2021/11/29 01:08:50;;;;;;;16.67;7.57;;;;;;;;;;5028549;28;20324;-82
2021/11/29 01:11:17;;;;;;;19.57;8.40;;;;;;;;;;5029028;28;20224;-82
2021/11/29 01:13:44;;;;;;;21.13;8.33;;;;;;;;;;5028145;28;20230;-83
2021/11/29 01:16:12;;;;;;;23.23;7.87;;;;;;;;;;5028200;28;20204;-84
2021/11/29 01:21:08;;;;;;;17.53;7.33;;;;;;;;;;5011424;28;20903;-80
2021/11/29 01:23:35;;;;;;;16.43;7.03;;;;;;;;;;5016473;28;20205;-80
2021/11/29 01:26:02;;;;;;;15.40;6.73;;;;;;;;;;5015378;28;20299;-78
2021/11/29 01:28:30;;;;;;;18.50;7.93;;;;;;;;;;5018998;28;20295;-80
2021/11/29 01:30:57;;;;;;;17.77;8.27;;;;;;;;;;5019176;28;20879;-79
2021/11/29 01:33:25;;;;;;;24.77;8.67;;;;;;;;;;5013749;28;20315;-79
2021/11/29 01:35:53;;;;;;;14.40;7.37;;;;;;;;;;5019276;28;20655;-80
2021/11/29 01:38:20;;;;;;;21.90;8.90;;;;;;;;;;5010190;28;20208;-80
2021/11/29 01:40:47;;;;;;;20.43;7.80;;;;;;;;;;5013700;28;20248;-80
2021/11/29 01:43:15;;;;;;;19.13;8.97;;;;;;;;;;5025034;28;20208;-80
2021/11/29 01:45:43;;;;;;;20.23;7.67;;;;;;;;;;5013501;28;20744;-81
2021/11/29 01:48:12;;;;;;;21.43;8.10;;;;;;;;;;5014403;28;20457;-80
2021/11/29 01:50:41;;;;;;;22.83;9.67;;;;;;;;;;5015846;28;20252;-82
2021/11/29 01:53:09;;;;;;;21.10;8.40;;;;;;;;;;5014096;28;20288;-80
2021/11/29 01:55:37;;;;;;;18.97;8.00;;;;;;;;;;5014222;28;20281;-81
2021/11/29 01:58:04;;;;;;;17.77;7.60;;;;;;;;;;5018702;28;20304;-79
2021/11/29 02:00:33;;;;;;;23.23;8.60;;;;;;;;;;5015904;28;20302;-80
2021/11/29 02:03:00;;;;;;;18.63;8.00;;;;;;;;;;5011758;28;20286;-79
2021/11/29 02:05:28;;;;;;;18.80;8.13;;;;;;;;;;5015022;28;20622;-80
2021/11/29 02:07:57;;;;;;;19.83;7.87;;;;;;;;;;5008844;28;20295;-80
2021/11/29 02:10:25;;;;;;;16.43;7.33;;;;;;;;;;5007761;28;20236;-79
2021/11/29 02:12:53;;;;;;;16.00;7.00;;;;;;;;;;5013896;28;20319;-79
2021/11/29 02:15:21;;;;;;;21.57;7.03;;;;;;;;;;5017849;28;20208;-79
2021/11/29 02:17:48;;;;;;;22.27;7.13;;;;;;;;;;5014133;28;20296;-80
2021/11/29 02:20:16;;;;;;;24.90;7.97;;;;;;;;;;5015212;28;20661;-79
2021/11/29 02:22:45;;;;;;;17.53;7.27;;;;;;;;;;5013612;28;20271;-78
2021/11/29 02:25:13;;;;;;;18.20;6.97;;;;;;;;;;5016148;28;20239;-78
2021/11/29 02:27:42;;;;;;;15.50;6.53;;;;;;;;;;5018086;28;20678;-79
2021/11/29 02:30:10;;;;;;;18.27;7.30;;;;;;;;;;5012868;28;20307;-80
2021/11/29 02:32:37;;;;;;;21.73;7.47;;;;;;;;;;5016754;28;20236;-79
2021/11/29 02:35:05;;;;;;;17.60;6.47;;;;;;;;;;5020292;28;20239;-79
2021/11/29 02:37:32;;;;;;;15.03;6.97;;;;;;;;;;5016364;28;20242;-80
2021/11/29 02:40:01;;;;;;;24.13;6.60;;;;;;;;;;5017241;28;20693;-79
2021/11/29 02:42:28;;;;;;;20.43;7.43;;;;;;;;;;5019320;28;20212;-80
2021/11/29 02:44:55;;;;;;;26.47;7.60;;;;;;;;;;5018918;28;20728;-80
2021/11/29 02:47:22;;;;;;;19.07;7.87;;;;;;;;;;5016718;28;20458;-80
2021/11/29 02:49:50;;;;;;;22.90;7.23;;;;;;;;;;5018790;28;20298;-80
2021/11/29 02:52:18;;;;;;;19.87;7.63;;;;;;;;;;5011584;28;20201;-80
2021/11/29 02:54:45;;;;;;;20.37;7.70;;;;;;;;;;5006436;28;20247;-80
2021/11/29 02:57:15;;;;;;;16.33;6.93;;;;;;;;;;5008088;28;20239;-79
2021/11/29 02:59:42;;;;;;;27.17;7.37;;;;;;;;;;5010416;28;20323;-80
2021/11/29 03:02:10;;;;;;;19.87;7.67;;;;;;;;;;5014480;28;20717;-82
2021/11/29 03:04:38;;;;;;;20.97;7.83;;;;;;;;;;5011211;28;20227;-78
2021/11/29 03:07:05;;;;;;;21.40;7.97;;;;;;;;;;5013651;28;20204;-80
2021/11/29 03:09:33;;;;;;;22.93;8.30;;;;;;;;;;5008733;28;20270;-80
2021/11/29 03:12:01;;;;;;;20.20;8.60;;;;;;;;;;5010895;28;20255;-81
2021/11/29 03:14:29;;;;;;;19.40;7.80;;;;;;;;;;5012624;28;20255;-80
2021/11/29 03:16:57;;;;;;;24.17;8.07;;;;;;;;;;5020858;28;20204;-77
2021/11/29 03:19:25;;;;;;;28.93;8.07;;;;;;;;;;5015161;28;20669;-78
2021/11/29 03:21:52;;;;;;;25.13;8.87;;;;;;;;;;5010122;28;20621;-77
2021/11/29 03:24:20;;;;;;;26.07;9.60;;;;;;;;;;5012551;28;20706;-80
2021/11/29 03:26:47;;;;;;;19.93;6.73;;;;;;;;;;5009571;28;20742;-80
2021/11/29 03:29:15;;;;;;;26.90;9.43;;;;;;;;;;5011055;28;20388;-78
2021/11/29 03:31:45;;;;;;;25.40;9.17;;;;;;;;;;5009619;28;20251;-80
2021/11/29 03:34:13;;;;;;;23.07;9.63;;;;;;;;;;5017004;28;20223;-80
2021/11/29 03:36:41;;;;;;;29.03;9.70;;;;;;;;;;5012604;28;20248;-78
2021/11/29 03:39:10;;;;;;;27.50;9.63;;;;;;;;;;5011916;28;20236;-79
2021/11/29 03:41:38;;;;;;;28.87;10.07;;;;;;;;;;5009180;28;20235;-80
2021/11/29 03:44:06;;;;;;;26.77;9.47;;;;;;;;;;5012472;28;20246;-80
2021/11/29 03:46:33;;;;;;;28.30;10.57;;;;;;;;;;5009288;28;20771;-80
2021/11/29 03:49:02;;;;;;;27.17;10.20;;;;;;;;;;5011923;28;20693;-81
2021/11/29 03:51:29;;;;;;;33.67;11.33;;;;;;;;;;5013902;28;20227;-80
2021/11/29 03:53:57;;;;;;;26.23;10.20;;;;;;;;;;5012373;28;20315;-79
2021/11/29 03:56:24;;;;;;;25.87;10.13;;;;;;;;;;5012476;28;20200;-80
2021/11/29 03:58:51;;;;;;;37.17;12.30;;;;;;;;;;5014000;28;20258;-78
2021/11/29 04:01:19;;;;;;;28.03;10.83;;;;;;;;;;5009593;28;20229;-78
2021/11/29 04:03:46;;;;;;;34.17;10.87;;;;;;;;;;5004666;28;20919;-79
2021/11/29 04:06:14;;;;;;;40.00;12.03;;;;;;;;;;5011486;28;20575;-78
2021/11/29 04:08:42;;;;;;;38.10;12.83;;;;;;;;;;5011486;28;20295;-79
2021/11/29 04:11:09;;;;;;;28.23;11.20;;;;;;;;;;5009691;28;20259;-80
2021/11/29 04:13:36;;;;;;;33.50;10.67;;;;;;;;;;5011142;28;20255;-80
2021/11/29 04:16:04;;;;;;;38.37;12.77;;;;;;;;;;5013792;28;20720;-78
2021/11/29 04:18:31;;;;;;;38.40;12.27;;;;;;;;;;5012232;28;20498;-80
2021/11/29 04:20:58;;;;;;;35.90;12.67;;;;;;;;;;5010567;28;21153;-77
2021/11/29 04:23:27;;;;;;;35.13;12.70;;;;;;;;;;5010386;28;20848;-80
2021/11/29 04:25:56;;;;;;;43.73;15.40;;;;;;;;;;5009261;28;20232;-79
2021/11/29 04:28:23;;;;;;;47.03;15.03;;;;;;;;;;5016408;28;20211;-79
2021/11/29 04:30:51;;;;;;;39.67;14.20;;;;;;;;;;5011653;28;20243;-78
2021/11/29 04:33:18;;;;;;;34.20;13.47;;;;;;;;;;5011480;28;20451;-79
2021/11/29 04:35:46;;;;;;;36.60;13.63;;;;;;;;;;5013094;28;20200;-80
2021/11/29 04:38:13;;;;;;;32.30;13.13;;;;;;;;;;5013094;28;20447;-78
2021/11/29 04:40:42;;;;;;;35.20;14.10;;;;;;;;;;5013327;28;20266;-80
2021/11/29 04:43:09;;;;;;;39.17;14.00;;;;;;;;;;5007522;28;20278;-79
2021/11/29 04:45:36;;;;;;;36.70;14.20;;;;;;;;;;5007428;28;20530;-79
2021/11/29 04:48:04;;;;;;;42.50;14.73;;;;;;;;;;5011791;28;20590;-79
2021/11/29 04:50:32;;;;;;;44.23;15.37;;;;;;;;;;5011273;28;20220;-79
2021/11/29 04:52:59;;;;;;;41.73;15.57;;;;;;;;;;5010815;28;20244;-80
2021/11/29 04:55:26;;;;;;;40.77;16.23;;;;;;;;;;5011049;28;20255;-79
2021/11/29 04:57:55;;;;;;;48.27;15.67;;;;;;;;;;5014084;28;20586;-80
2021/11/29 05:00:22;;;;;;;46.53;16.00;;;;;;;;;;5017855;28;20230;-78
2021/11/29 05:02:50;;;;;;;41.77;16.37;;;;;;;;;;5014639;28;20240;-78
2021/11/29 05:05:17;;;;;;;41.93;16.40;;;;;;;;;;5009525;28;20232;-80
2021/11/29 05:07:45;;;;;;;36.67;15.13;;;;;;;;;;5015599;28;20246;-79
2021/11/29 05:10:12;;;;;;;41.10;16.70;;;;;;;;;;5016470;28;20256;-79
2021/11/29 05:12:40;;;;;;;43.10;16.20;;;;;;;;;;5010562;28;20287;-79
2021/11/29 05:15:09;;;;;;;44.80;17.03;;;;;;;;;;5014204;28;20259;-79
2021/11/29 05:17:36;;;;;;;47.00;17.80;;;;;;;;;;5014519;28;20822;-79
2021/11/29 05:20:05;;;;;;;49.00;16.53;;;;;;;;;;5011603;28;20299;-78
2021/11/29 05:22:32;;;;;;;48.50;17.93;;;;;;;;;;5005755;28;20598;-78
2021/11/29 05:24:59;;;;;;;41.90;16.80;;;;;;;;;;5006751;28;20550;-78
2021/11/29 05:27:26;;;;;;;41.63;17.17;;;;;;;;;;5007245;28;20565;-80
2021/11/29 05:29:54;;;;;;;47.03;17.67;;;;;;;;;;5006985;28;20286;-79
2021/11/29 05:32:22;;;;;;;41.77;17.93;;;;;;;;;;5007249;28;20236;-80
2021/11/29 05:34:49;;;;;;;37.77;16.70;;;;;;;;;;5005183;28;20541;-79
2021/11/29 05:37:17;;;;;;;42.10;15.20;;;;;;;;;;4998543;28;20347;-79
2021/11/29 05:39:44;;;;;;;36.63;15.90;;;;;;;;;;5002093;28;20824;-78
2021/11/29 05:42:11;;;;;;;43.07;17.73;;;;;;;;;;5004558;28;20459;-80
2021/11/29 05:44:38;;;;;;;40.57;16.40;;;;;;;;;;4997428;28;20531;-78
2021/11/29 05:47:06;;;;;;;39.03;16.40;;;;;;;;;;5000502;28;20204;-78
2021/11/29 05:49:34;;;;;;;40.53;16.23;;;;;;;;;;5007772;28;20458;-81
2021/11/29 05:52:02;;;;;;;39.80;16.40;;;;;;;;;;4998876;28;20307;-80
2021/11/29 05:54:29;;;;;;;39.10;15.87;;;;;;;;;;5000554;28;20239;-81
2021/11/29 05:56:57;;;;;;;41.13;16.53;;;;;;;;;;4993984;28;20208;-81
2021/11/29 05:59:24;;;;;;;38.37;16.63;;;;;;;;;;4994783;28;20295;-81
2021/11/29 06:01:51;;;;;;;39.73;15.77;;;;;;;;;;4991917;28;20228;-82
2021/11/29 06:04:18;;;;;;;39.30;16.13;;;;;;;;;;5001590;28;20303;-81
2021/11/29 06:06:47;;;;;;;37.50;16.73;;;;;;;;;;4996217;28;20290;-80
2021/11/29 06:09:14;;;;;;;44.30;17.27;;;;;;;;;;4996568;28;20209;-81
2021/11/29 06:11:42;;;;;;;42.90;17.63;;;;;;;;;;4993860;28;20224;-82
2021/11/29 06:14:09;;;;;;;45.90;18.87;;;;;;;;;;4991036;28;20956;-80
2021/11/29 06:16:36;;;;;;;40.97;16.93;;;;;;;;;;5001988;28;20212;-80
2021/11/29 06:19:04;;;;;;;47.90;18.40;;;;;;;;;;4998154;28;20766;-81
2021/11/29 06:21:31;;;;;;;44.10;17.77;;;;;;;;;;5004595;28;20228;-80
2021/11/29 06:24:00;;;;;;;45.97;18.90;;;;;;;;;;5007104;28;20808;-79
2021/11/29 06:26:27;;;;;;;51.17;19.47;;;;;;;;;;5012796;28;20215;-80
2021/11/29 06:28:54;;;;;;;40.67;18.40;;;;;;;;;;5015060;28;20231;-80
2021/11/29 06:31:22;;;;;;;45.03;16.50;;;;;;;;;;5011455;28;20281;-80
2021/11/29 06:33:49;;;;;;;43.17;17.67;;;;;;;;;;5010834;28;20307;-78
2021/11/29 06:36:16;;;;;;;43.50;17.20;;;;;;;;;;5011388;28;20742;-79
2021/11/29 06:38:43;;;;;;;47.37;17.10;;;;;;;;;;5012172;28;20257;-79
2021/11/29 06:41:12;;;;;;;38.73;17.33;;;;;;;;;;5013250;28;20228;-80
2021/11/29 06:43:39;;;;;;;38.13;16.97;;;;;;;;;;5009631;28;20308;-79
2021/11/29 06:46:10;;;;;;;42.00;19.60;;;;;;;;;;5013745;28;20235;-80
2021/11/29 06:48:37;;;;;;;42.43;16.67;;;;;;;;;;5009587;28;20675;-79
2021/11/29 06:51:05;;;;;;;41.53;19.87;;;;;;;;;;5011174;28;20690;-80
2021/11/29 06:53:33;;;;;;;64.00;28.50;;;;;;;;;;5011649;28;20268;-80
2021/11/29 06:56:01;;;;;;;52.47;23.93;;;;;;;;;;5001907;28;20702;-80
2021/11/29 06:58:30;;;;;;;36.90;16.17;;;;;;;;;;5012460;28;20831;-79
2021/11/29 07:00:57;;;;;;;38.10;18.43;;;;;;;;;;5009167;28;20255;-80
2021/11/29 07:03:24;;;;;;;35.50;16.27;;;;;;;;;;5011880;28;20228;-80
2021/11/29 07:05:51;;;;;;;31.33;15.37;;;;;;;;;;5012623;28;20204;-80
2021/11/29 07:08:19;;;;;;;39.87;20.40;;;;;;;;;;5012273;28;20537;-79
2021/11/29 07:10:47;;;;;;;26.27;13.43;;;;;;;;;;5009888;28;20717;-80
2021/11/29 07:13:15;;;;;;;31.50;14.30;;;;;;;;;;5012558;28;20624;-80
2021/11/29 07:15:44;;;;;;;45.83;22.97;;;;;;;;;;5008251;28;20237;-80
2021/11/29 07:18:11;;;;;;;30.40;14.13;;;;;;;;;;5020974;28;20200;-79
2021/11/29 07:20:39;;;;;;;37.40;16.57;;;;;;;;;;5033903;22;20705;-82
2021/11/29 07:23:06;;;;;;;36.47;15.57;;;;;;;;;;5020269;28;20231;-79
2021/11/29 07:25:33;;;;;;;29.77;13.63;;;;;;;;;;5019462;28;20550;-81
2021/11/29 07:28:01;;;;;;;37.77;14.37;;;;;;;;;;5021312;28;20212;-80
2021/11/29 07:30:29;;;;;;;36.90;15.60;;;;;;;;;;5023167;28;20254;-79
2021/11/29 07:32:58;;;;;;;33.50;15.67;;;;;;;;;;5023081;28;20239;-80
2021/11/29 07:35:26;;;;;;;35.37;15.73;;;;;;;;;;5024039;28;20232;-81
2021/11/29 07:37:53;;;;;;;35.30;15.33;;;;;;;;;;5018336;28;20367;-80
2021/11/29 07:40:21;;;;;;;36.70;16.27;;;;;;;;;;5021468;28;20221;-80
2021/11/29 07:42:48;;;;;;;40.77;16.50;;;;;;;;;;5014219;28;20627;-79
2021/11/29 07:45:16;;;;;;;38.20;15.87;;;;;;;;;;5010300;28;22173;-80
2021/11/29 07:47:44;;;;;;;37.13;15.90;;;;;;;;;;5012651;28;20212;-79
2021/11/29 07:50:14;;;;;;;38.17;16.10;;;;;;;;;;5011971;28;20239;-80
2021/11/29 07:52:42;;;;;;;41.87;15.97;;;;;;;;;;5009861;28;20215;-77
2021/11/29 07:55:11;;;;;;;36.90;17.33;;;;;;;;;;5011083;28;20316;-78
2021/11/29 07:57:38;;;;;;;42.57;17.70;;;;;;;;;;5009601;28;20211;-79
2021/11/29 08:00:06;;;;;;;36.50;16.03;;;;;;;;;;5011988;28;20281;-80
2021/11/29 08:02:34;;;;;;;37.40;16.43;;;;;;;;;;5014775;28;20257;-80
2021/11/29 08:05:01;;;;;;;42.87;18.60;;;;;;;;;;5021259;28;20271;-77
2021/11/29 08:07:30;;;;;;;34.17;16.73;;;;;;;;;;5029955;28;20245;-76
2021/11/29 08:09:57;;;;;;;36.53;15.40;;;;;;;;;;5016478;28;20203;-77
2021/11/29 08:12:24;;;;;;;44.20;17.53;;;;;;;;;;5016859;28;20262;-80
2021/11/29 08:14:53;;;;;;;39.90;17.23;;;;;;;;;;5008734;28;20701;-79
2021/11/29 08:17:21;;;;;;;37.90;16.60;;;;;;;;;;5017659;28;20669;-79
2021/11/29 08:19:48;;;;;;;36.37;16.10;;;;;;;;;;5016780;28;20216;-80
2021/11/29 08:22:16;;;;;;;37.63;16.53;;;;;;;;;;5020228;28;20618;-80
2021/11/29 08:24:45;;;;;;;39.80;16.80;;;;;;;;;;5017462;28;20666;-76
2021/11/29 08:27:13;;;;;;;43.07;19.00;;;;;;;;;;5014992;28;20302;-80
2021/11/29 08:29:41;;;;;;;31.10;13.73;;;;;;;;;;5014302;28;20204;-80
2021/11/29 08:32:09;;;;;;;37.93;16.53;;;;;;;;;;5020008;28;20235;-78
2021/11/29 08:34:38;;;;;;;31.37;14.93;;;;;;;;;;5015452;28;20253;-79
2021/11/29 08:37:06;;;;;;;33.03;15.57;;;;;;;;;;5020992;28;20698;-78
2021/11/29 08:39:33;;;;;;;34.97;15.93;;;;;;;;;;5025623;28;20246;-81
2021/11/29 08:42:02;;;;;;;39.63;16.23;;;;;;;;;;5027996;28;20238;-77
2021/11/29 08:44:29;;;;;;;35.50;15.47;;;;;;;;;;5025293;28;20596;-80
2021/11/29 08:46:57;;;;;;;32.57;15.93;;;;;;;;;;5023666;28;20287;-81
2021/11/29 08:49:25;;;;;;;28.77;14.13;;;;;;;;;;5024755;28;20298;-79
2021/11/29 08:51:52;;;;;;;30.47;14.50;;;;;;;;;;5026291;28;20709;-80
2021/11/29 08:54:19;;;;;;;31.03;14.93;;;;;;;;;;5026508;28;20310;-79
2021/11/29 08:56:47;;;;;;;36.73;15.37;;;;;;;;;;5025038;28;20228;-78
2021/11/29 08:59:16;;;;;;;33.27;16.07;;;;;;;;;;5024271;28;20750;-78
2021/11/29 09:01:43;;;;;;;31.47;15.90;;;;;;;;;;5023643;28;20215;-80
2021/11/29 09:04:10;;;;;;;27.90;13.60;;;;;;;;;;5031447;28;20228;-80
2021/11/29 09:06:38;;;;;;;32.40;14.63;;;;;;;;;;5027399;28;20219;-77
2021/11/29 09:09:05;;;;;;;33.70;14.37;;;;;;;;;;5032943;28;20242;-77
2021/11/29 09:11:32;;;;;;;25.63;12.53;;;;;;;;;;5042988;28;20228;-78
2021/11/29 09:13:59;;;;;;;24.10;12.57;;;;;;;;;;5035669;28;20614;-80
2021/11/29 09:16:29;;;;;;;27.23;13.00;;;;;;;;;;5023522;28;20311;-79
2021/11/29 09:18:56;;;;;;;27.30;13.53;;;;;;;;;;5021543;28;20646;-79
2021/11/29 09:21:25;;;;;;;30.17;13.07;;;;;;;;;;5019090;28;20258;-78
2021/11/29 09:23:52;;;;;;;29.67;12.53;;;;;;;;;;5019082;28;20211;-79
2021/11/29 09:26:20;;;;;;;21.83;11.57;;;;;;;;;;5016407;28;20200;-78
2021/11/29 09:28:47;;;;;;;23.23;11.07;;;;;;;;;;5020485;28;20298;-78
2021/11/29 09:31:15;;;;;;;19.67;10.90;;;;;;;;;;5016622;28;20737;-79
2021/11/29 09:33:44;;;;;;;23.87;11.37;;;;;;;;;;5021654;28;20268;-78
2021/11/29 09:36:11;;;;;;;24.00;12.87;;;;;;;;;;5020527;28;20220;-80
2021/11/29 09:38:38;;;;;;;27.33;13.17;;;;;;;;;;5018861;28;20267;-80
2021/11/29 09:41:06;;;;;;;19.53;10.80;;;;;;;;;;5019762;28;20446;-81
2021/11/29 09:43:34;;;;;;;25.30;12.27;;;;;;;;;;5025159;28;20236;-82
2021/11/29 09:46:02;;;;;;;21.77;10.33;;;;;;;;;;5022996;28;20471;-84
2021/11/29 09:48:29;;;;;;;19.90;11.00;;;;;;;;;;5023570;28;20208;-84
2021/11/29 09:50:58;;;;;;;24.10;14.33;;;;;;;;;;5023935;28;20298;-81
2021/11/29 09:53:26;;;;;;;25.60;13.30;;;;;;;;;;5023902;28;20266;-82
2021/11/29 09:55:53;;;;;;;23.97;11.20;;;;;;;;;;5022585;28;20228;-83
2021/11/29 09:58:21;;;;;;;26.23;15.07;;;;;;;;;;5025964;28;20216;-84
2021/11/29 10:00:50;;;;;;;24.50;12.37;;;;;;;;;;5023653;28;20322;-83
2021/11/29 10:03:18;;;;;;;27.27;13.87;;;;;;;;;;5026766;28;20212;-82
2021/11/29 10:05:45;;;;;;;22.07;10.20;;;;;;;;;;5032568;28;20212;-83
2021/11/29 10:08:20;;;;;;;20.73;10.13;;;;;;;;;;5032707;28;20674;-84
2021/11/29 10:10:48;;;;;;;21.50;10.30;;;;;;;;;;5034428;28;20234;-82
2021/11/29 10:13:17;;;;;;;26.30;13.07;;;;;;;;;;5034494;28;20208;-84
2021/11/29 10:15:45;;;;;;;21.00;12.43;;;;;;;;;;5042507;28;20595;-80
2021/11/29 10:18:30;;;;;;;19.93;10.87;;;;;;;;;;5053624;28;20208;-80
2021/11/29 10:20:58;;;;;;;20.37;10.70;;;;;;;;;;5035161;28;20318;-84
2021/11/29 10:23:30;;;;;;;20.77;9.67;;;;;;;;;;5036848;28;20230;-85
2021/11/29 10:25:59;;;;;;;19.77;9.63;;;;;;;;;;5031523;28;20299;-83
2021/11/29 10:28:31;;;;;;;16.00;9.10;;;;;;;;;;5033431;28;20285;-84
2021/11/29 10:31:05;;;;;;;15.63;8.70;;;;;;;;;;5032624;28;20238;-84
2021/11/29 10:33:33;;;;;;;17.40;9.13;;;;;;;;;;5035337;28;20249;-84
2021/11/29 10:36:09;;;;;;;17.67;8.00;;;;;;;;;;5032917;28;20223;-85
2021/11/29 10:38:40;;;;;;;16.20;7.87;;;;;;;;;;5035580;28;20204;-82
2021/11/29 10:41:08;;;;;;;14.77;7.97;;;;;;;;;;5033754;28;20596;-85
2021/11/29 10:43:40;;;;;;;13.67;7.63;;;;;;;;;;5034351;28;20212;-84
2021/11/29 10:46:18;;;;;;;16.93;8.13;;;;;;;;;;5034082;28;20214;-83
2021/11/29 10:48:46;;;;;;;13.40;7.87;;;;;;;;;;5034822;28;20249;-84
2021/11/29 10:51:15;;;;;;;16.27;8.10;;;;;;;;;;5033834;28;20892;-85
2021/11/29 10:53:48;;;;;;;15.13;7.73;;;;;;;;;;5033886;28;20207;-84
2021/11/29 10:56:17;;;;;;;15.30;8.07;;;;;;;;;;5033400;28;20270;-85
2021/11/29 10:58:45;;;;;;;14.80;8.30;;;;;;;;;;5032263;28;20286;-82
2021/11/29 11:01:16;;;;;;;15.10;7.67;;;;;;;;;;5027805;28;20759;-82
2021/11/29 11:03:50;;;;;;;18.70;9.37;;;;;;;;;;5032952;28;20200;-83
2021/11/29 11:06:27;;;;;;;14.70;7.70;;;;;;;;;;5026436;28;20215;-84
2021/11/29 11:08:58;;;;;;;19.93;8.50;;;;;;;;;;5028563;28;20203;-82
2021/11/29 11:11:34;;;;;;;16.00;8.27;;;;;;;;;;5029818;28;20220;-83
2021/11/29 11:14:02;;;;;;;15.37;8.37;;;;;;;;;;5023675;28;20200;-84
2021/11/29 11:16:51;;;;;;;14.40;8.10;;;;;;;;;;5026389;28;20794;-84
2021/11/29 11:19:23;;;;;;;15.17;7.70;;;;;;;;;;5032096;28;20207;-83
2021/11/29 11:21:50;;;;;;;15.33;7.30;;;;;;;;;;5049351;28;20199;-81
2021/11/29 11:24:23;;;;;;;13.47;7.70;;;;;;;;;;5044732;28;20204;-86
2021/11/29 11:26:52;;;;;;;13.93;6.97;;;;;;;;;;5029651;28;20208;-85
2021/11/29 11:29:33;;;;;;;13.37;7.00;;;;;;;;;;5034369;28;20200;-85
2021/11/29 11:32:13;;;;;;;14.27;7.07;;;;;;;;;;5027424;28;20223;-87
2021/11/29 11:34:42;;;;;;;13.27;7.03;;;;;;;;;;5024228;28;20211;-86
2021/11/29 11:37:13;;;;;;;15.83;6.90;;;;;;;;;;5023995;28;20274;-84
2021/11/29 11:39:45;;;;;;;14.83;7.03;;;;;;;;;;5025710;28;20208;-85
2021/11/29 11:42:12;;;;;;;13.63;7.17;;;;;;;;;;5027338;28;20298;-84
2021/11/29 11:44:40;;;;;;;13.73;7.20;;;;;;;;;;5026788;28;20215;-85
2021/11/29 11:47:09;;;;;;;13.13;7.20;;;;;;;;;;5026543;28;20208;-86
2021/11/29 11:49:40;;;;;;;18.93;7.80;;;;;;;;;;5027157;28;20601;-86
2021/11/29 11:52:08;;;;;;;14.37;7.83;;;;;;;;;;5026108;28;20231;-85
2021/11/29 11:54:36;;;;;;;15.73;8.53;;;;;;;;;;5028475;28;20563;-84
2021/11/29 11:57:05;;;;;;;15.10;8.47;;;;;;;;;;5029674;28;20255;-86
2021/11/29 11:59:36;;;;;;;16.80;8.77;;;;;;;;;;5027268;28;20203;-85
2021/11/29 12:02:06;;;;;;;17.90;9.40;;;;;;;;;;5027487;28;20725;-84
2021/11/29 12:04:35;;;;;;;18.93;8.53;;;;;;;;;;5030785;28;20211;-85
2021/11/29 12:07:03;;;;;;;15.97;8.30;;;;;;;;;;5030454;28;20215;-85
2021/11/29 12:09:32;;;;;;;16.70;8.80;;;;;;;;;;5027605;28;20214;-85
2021/11/29 12:12:03;;;;;;;18.43;8.67;;;;;;;;;;5025986;28;20226;-85
2021/11/29 12:14:35;;;;;;;19.50;9.33;;;;;;;;;;5026333;28;20208;-85
2021/11/29 12:17:17;;;;;;;16.77;8.50;;;;;;;;;;5024256;28;20217;-84
2021/11/29 12:19:47;;;;;;;18.13;7.23;;;;;;;;;;5029768;28;20643;-85
2021/11/29 12:22:32;;;;;;;18.30;7.13;;;;;;;;;;5030151;28;20642;-86
2021/11/29 12:25:01;;;;;;;13.10;7.40;;;;;;;;;;5031265;28;20203;-84
2021/11/29 12:27:41;;;;;;;15.53;6.90;;;;;;;;;;5051192;28;20188;-81
2021/11/29 12:30:11;;;;;;;14.37;6.97;;;;;;;;;;5043646;28;20231;-84
2021/11/29 12:32:52;;;;;;;14.07;8.00;;;;;;;;;;5027531;28;21407;-84
2021/11/29 12:35:30;;;;;;;11.30;6.73;;;;;;;;;;5029604;28;20223;-82
2021/11/29 12:38:02;;;;;;;11.40;7.17;;;;;;;;;;5027215;28;20223;-85
2021/11/29 12:40:41;;;;;;;12.33;7.33;;;;;;;;;;5030613;28;20704;-83
2021/11/29 12:43:08;;;;;;;16.70;9.27;;;;;;;;;;5033877;28;20259;-86
2021/11/29 12:45:37;;;;;;;15.30;7.97;;;;;;;;;;5029428;28;20551;-86
2021/11/29 12:48:15;;;;;;;39.83;19.60;;;;;;;;;;5026105;28;20200;-85
2021/11/29 12:50:49;;;;;;;25.13;11.90;;;;;;;;;;5025887;28;20222;-83
2021/11/29 12:53:21;;;;;;;12.03;7.47;;;;;;;;;;5028647;28;20200;-84
2021/11/29 12:55:50;;;;;;;57.53;29.63;;;;;;;;;;5030589;28;20227;-85
2021/11/29 12:58:19;;;;;;;66.00;28.97;;;;;;;;;;5024945;28;20199;-85
2021/11/29 13:00:49;;;;;;;49.03;22.13;;;;;;;;;;5027423;28;20254;-81
2021/11/29 13:03:17;;;;;;;77.73;38.00;;;;;;;;;;5026724;28;20560;-83
2021/11/29 13:05:45;;;;;;;24.83;13.43;;;;;;;;;;5028530;28;20571;-85
2021/11/29 13:08:19;;;;;;;17.80;9.47;;;;;;;;;;5029830;28;20230;-85
2021/11/29 13:10:51;;;;;;;40.23;23.53;;;;;;;;;;5029259;28;20230;-85
2021/11/29 13:13:29;;;;;;;36.40;20.27;;;;;;;;;;5027030;28;20210;-86
2021/11/29 13:15:58;;;;;;;13.67;7.83;;;;;;;;;;5029517;28;20220;-85
2021/11/29 13:18:44;;;;;;;15.07;7.70;;;;;;;;;;5028409;28;20211;-82
2021/11/29 13:21:12;;;;;;;20.63;11.03;;;;;;;;;;5029095;28;20231;-85
2021/11/29 13:23:45;;;;;;;16.77;9.07;;;;;;;;;;5030620;28;20226;-84
2021/11/29 13:26:13;;;;;;;13.47;8.10;;;;;;;;;;5030928;28;20202;-86
2021/11/29 13:28:43;;;;;;;14.43;7.90;;;;;;;;;;5033548;28;20212;-82
2021/11/29 13:31:13;;;;;;;25.43;9.20;;;;;;;;;;5031610;28;20649;-86
2021/11/29 13:33:41;;;;;;;14.37;7.80;;;;;;;;;;5049541;28;20227;-80
2021/11/29 13:36:10;;;;;;;18.90;9.63;;;;;;;;;;5046522;28;20203;-83
2021/11/29 13:38:38;;;;;;;16.93;8.73;;;;;;;;;;5032009;28;20624;-82
2021/11/29 13:41:06;;;;;;;14.20;8.20;;;;;;;;;;5029700;28;20291;-84
2021/11/29 13:43:33;;;;;;;17.63;8.23;;;;;;;;;;5033299;28;20200;-85
2021/11/29 13:46:12;;;;;;;15.80;8.67;;;;;;;;;;5034267;28;20296;-86
2021/11/29 13:48:41;;;;;;;14.33;7.53;;;;;;;;;;5027845;28;20203;-85
2021/11/29 13:51:09;;;;;;;13.67;7.83;;;;;;;;;;5030809;28;20585;-84
2021/11/29 13:53:40;;;;;;;13.53;7.40;;;;;;;;;;5028608;28;20211;-84
2021/11/29 13:56:08;;;;;;;13.17;7.40;;;;;;;;;;5029093;28;20207;-85
2021/11/29 13:58:36;;;;;;;12.10;6.53;;;;;;;;;;5030192;28;20250;-84
2021/11/29 14:01:05;;;;;;;18.43;10.07;;;;;;;;;;5032724;28;20232;-83
2021/11/29 14:03:43;;;;;;;14.27;8.27;;;;;;;;;;5031042;28;20220;-85
2021/11/29 14:06:12;;;;;;;16.13;8.73;;;;;;;;;;5027970;28;20415;-83
2021/11/29 14:08:40;;;;;;;15.30;7.93;;;;;;;;;;5033361;28;20559;-84
2021/11/29 14:11:08;;;;;;;16.47;8.87;;;;;;;;;;5033407;28;20243;-82
2021/11/29 14:13:38;;;;;;;14.43;7.10;;;;;;;;;;5032904;28;20678;-81
2021/11/29 14:16:08;;;;;;;14.50;7.50;;;;;;;;;;5031933;28;20203;-83
2021/11/29 14:18:37;;;;;;;12.97;7.43;;;;;;;;;;5034425;28;20728;-82
2021/11/29 14:21:06;;;;;;;13.40;7.40;;;;;;;;;;5033785;28;20607;-84
2021/11/29 14:23:43;;;;;;;19.10;11.00;;;;;;;;;;5032910;28;20215;-84
2021/11/29 14:26:11;;;;;;;12.10;7.03;;;;;;;;;;5032275;28;20207;-84
2021/11/29 14:28:38;;;;;;;14.10;7.73;;;;;;;;;;5033131;28;20200;-84
2021/11/29 14:31:07;;;;;;;13.40;7.27;;;;;;;;;;5032441;28;20250;-85
2021/11/29 14:33:36;;;;;;;14.43;7.53;;;;;;;;;;5031440;28;20433;-84
2021/11/29 14:36:04;;;;;;;14.27;7.47;;;;;;;;;;5036031;28;20291;-82